Tiempo atmosférico en la estación meteorológica de Aldeanueva de Serrezuela, Segovia (1135 m.)



Fecha
DESCASC
Temp. máxima en grados centígrados (hora)
DESCASC
Temp. mínima en grados centígrados (hora)
DESCASC
Temp. media en grados centígrados
DESCASC
Racha de viento máxima en m/sg (hora)
DESCASC
Velocidad máxima media en intervalos de 10 minutos(hora)
DESCASC
Precipitaciones diarias en mm
DESCASC
Precipitaciones de 00:00 a 06:00 en mm
DESCASC
Precipitaciones de 06:00 a 12:00 en mm
DESCASC
Precipitaciones de 12:00 a 18:00 en mm
DESCASC
Precipitaciones de 18:00 a 24:00 en mm
DESCASC
05-04-2020 16.2 (15:20) 7 (07:50) 11.6 13.06 (01:10) 8.89 (00:30) 0.2 0 0 0 0.2
04-04-2020 14.6 (16:20) 5.8 (00:00) 10.2 14.17 (15:20) 8.61 (23:30) 0 0 0 0 0
03-04-2020 11.8 (18:20) -1.3 (06:30) 5.3 6.11 (10:00) 4.17 (10:00) 0 0 0 0 0
02-04-2020 8 (15:00) 2.6 (00:00) 5.3 9.72 (18:30) 5.83 (18:30) 1.4 0 0.4 1 0
01-04-2020 9 (15:10) 3.7 (00:00) 6.4 11.39 (02:00) 7.78 (02:00) 7.2 0.8 0 4.4 2
31-03-2020 6.1 (16:40) -3 (-00:0) 1.5 15.28 (05:20) 9.72 (15:40) 2.4 0 0.6 0.8 1
30-03-2020 3 (00:00) -2.3 (-00:0) 0.4 12.22 (23:20) 7.5 (23:20) 0.4 0 0 0.4 0
29-03-2020 13.1 (16:10) 3 (00:00) 8.1 8.06 (15:10) 5 (19:30) 0 0 0 0 0
28-03-2020 13.4 (17:10) 1.7 (00:00) 7.5 7.78 (14:40) 4.72 (00:10) 0 0 0 0 0
27-03-2020 9.3 (16:10) -2.2 (-00:0) 3.6 13.61 (13:50) 7.78 (12:50) 0 0 0 0 0
26-03-2020 7.1 (14:50) -2.1 (-00:0) 2.5 12.78 (12:20) 8.06 (12:30) 0 0 0 0 0
25-03-2020 12.8 (16:40) 3.5 (00:00) 8.2 8.89 (15:30) 5.28 (13:30) 0 0 0 0 0
24-03-2020 10.8 (13:30) 5.2 (00:00) 8 15 (11:20) 10.28 (11:20) 0 0 0 0 0
23-03-2020 11.6 (16:10) 4.7 (00:00) 8.2 12.5 (21:10) 8.06 (14:50) 0 0 0 0 0
22-03-2020 11.6 (14:40) 4.6 (05:20) 8.1 9.72 (23:50) 6.67 (23:50) 1.6 1.4 0.2 0 0
21-03-2020 12.2 (15:00) 5.5 (00:00) 8.8 13.61 (04:30) 9.17 (04:30) 0.6 0 0 0 0.6
20-03-2020 12.8 (13:50) 5.9 (00:00) 9.4 11.67 (08:50) 7.5 (08:50) 0 0 0 0 0
19-03-2020 15.3 (14:40) 7.9 (00:00) 11.6 6.94 (16:40) 4.72 (16:50) 0 0 0 0 0
18-03-2020 16.4 (16:10) 6.8 (00:00) 11.6 9.44 (00:10) 6.39 (00:30) 0 0 0 0 0
17-03-2020 11 (16:40) 2.9 (00:00) 7 18.06 (06:30) 11.39 (14:30) 6.8 3.2 3.6 0 0
16-03-2020 6.5 (00:00) -0.5 (-00:0) 3 18.33 (12:30) 12.22 (12:30) 18.2 0.4 0 14.4 3.4
15-03-2020 17.1 (15:00) 6.5 (00:00) 11.8 14.44 (17:20) 8.33 (11:10) 6.2 0 0 6 0.2
14-03-2020 14.7 (16:40) 2.6 (00:00) 8.6 5 (02:40) 3.89 (04:30) 0 0 0 0 0
13-03-2020 15.4 (15:40) 3.9 (23:50) 9.6 7.78 (10:40) 5 (10:40) 0 0 0 0 0
12-03-2020 22.1 (15:10) 7.7 (00:00) 14.9 10.56 (13:00) 6.94 (13:00) 0 0 0 0 0
11-03-2020 20.8 (15:40) 10.1 (00:00) 15.4 8.61 (13:30) 5.83 (02:00) 0 0 0 0 0

Gráficas

Temp. máximas Temp. mínimas Temp. medias Precipitaciones Rachas de viento máximas Velocidades máximas media en intervalos de 10 minutos

Datos horarios

Fecha y hora oficial Temperatura (ºC) Velocidad del viento (km/h) Dirección del viento Racha (km/h) Dirección de racha Precipitación (mm) Presión (hPa) Tendencia (hPa) Humedad (%)
2020-04-09 23:00:00 10.4 11 Sudeste 22 Sur 0.2 -- -- 90
2020-04-09 22:00:00 10.4 12 Sudeste 23 Sudeste 0.2 -- -- 90
2020-04-09 21:00:00 10.9 11 Sudeste 18 Sudeste 0.4 -- -- 89
2020-04-09 20:00:00 12.1 4 Nordeste 7 Nordeste 0 -- -- 95
2020-04-09 19:00:00 13.1 4 Sudoeste 8 Sudoeste 0.4 -- -- 88
2020-04-09 18:00:00 13.4 6 Sudoeste 20 Oeste 0.4 -- -- 88
2020-04-09 17:00:00 14 14 Sudoeste 25 Oeste 0 -- -- 80
2020-04-09 16:00:00 14.3 17 Oeste 30 Sudoeste 0 -- -- 74
2020-04-09 15:00:00 16.3 17 Sudoeste 25 Sur 0 -- -- 60
2020-04-09 14:00:00 15.4 16 Sur 27 Sur 0 -- -- 63
2020-04-09 13:00:00 15 13 Sudeste 21 Sudeste 0 -- -- 66
2020-04-09 12:00:00 15.5 15 Sudeste 23 Sudeste 0 -- -- 62
2020-04-09 11:00:00 15.4 13 Sudeste 20 Sudeste 0 -- -- 64
2020-04-09 10:00:00 13.3 15 Sudeste 22 Sudeste 0 -- -- 72
2020-04-09 09:00:00 12.2 13 Sudeste 21 Sudeste 0 -- -- 77
2020-04-09 08:00:00 11.5 15 Sudeste 19 Sudeste 0 -- -- 79
2020-04-09 07:00:00 11.4 5 Sudeste 21 Sur 0 -- -- 76
2020-04-09 06:00:00 10.7 12 Sur 24 Sur 0 -- -- 81
2020-04-09 05:00:00 11.7 17 Sur 27 Sur 0 -- -- 77
2020-04-09 04:00:00 11.9 15 Sudeste 24 Sudeste 0 -- -- 77
2020-04-09 03:00:00 11.3 15 Sudeste 21 Sudeste 0 -- -- 80
2020-04-09 02:00:00 10.7 12 Sudeste 14 Sudeste 0 -- -- 82
2020-04-09 01:00:00 10.9 7 Sudeste 12 Este 0 -- -- 80
2020-04-09 00:00:00 11.5 9 Sudeste 10 Sudeste 0 -- -- 80
2020-04-08 23:00:00 12 6 Este 11 Nordeste 0 -- -- 79
2020-04-08 22:00:00 13.5 7 Nordeste 9 Nordeste 0 -- -- 70
2020-04-08 21:00:00 14.8 2 Oeste 12 Noroeste 0 -- -- 59
2020-04-08 20:00:00 16.5 9 Noroeste 18 Oeste 0 -- -- 55
2020-04-08 19:00:00 17.4 9 Oeste 18 Oeste 0 -- -- 53
2020-04-08 18:00:00 17.4 11 Oeste 23 Oeste 0 -- -- 54
2020-04-08 17:00:00 18.3 10 Oeste 19 Oeste 0 -- -- 54
2020-04-08 16:00:00 16.5 5 Norte 14 Norte 0 -- -- 60
2020-04-08 15:00:00 15.5 4 Noroeste 17 Oeste 0 -- -- 65
2020-04-08 14:00:00 15 6 Noroeste 13 Nordeste 0 -- -- 68
2020-04-08 13:00:00 13.7 8 Nordeste 19 Noroeste 0 -- -- 79
2020-04-08 12:00:00 13.3 9 Nordeste 14 Nordeste 0 -- -- 83
2020-04-08 11:00:00 12 3 Noroeste 7 Oeste 0 -- -- 86
2020-04-08 10:00:00 11.6 5 Noroeste 9 Noroeste 0 -- -- 86
2020-04-08 09:00:00 10.8 3 Sudoeste 6 Sudoeste 0 -- -- 88
2020-04-08 08:00:00 9.6 4 Sudoeste 6 Sur 0 -- -- 88
2020-04-08 07:00:00 8.3 6 Este 7 Este 0 -- -- 92
2020-04-08 06:00:00 9.1 3 Sudoeste 13 Sur 0 -- -- 90
2020-04-08 05:00:00 10 9 Sur 14 Sur 0 -- -- 86
2020-04-08 04:00:00 10.2 10 Sur 20 Sur 0 -- -- 92
2020-04-08 03:00:00 10.1 12 Sur 15 Sur 0.4 -- -- 92
2020-04-08 02:00:00 9.9 9 Sudeste 10 Sudeste 0 -- -- 96
2020-04-08 01:00:00 9.8 5 Este 18 Norte 0 -- -- 96
2020-04-08 00:00:00 10.5 10 Sudoeste 22 Sudoeste 0 -- -- 85
2020-04-07 23:00:00 10.5 7 Oeste 27 Sudoeste 0 -- -- 90
2020-04-07 22:00:00 11 24 Sudoeste 44 Sudoeste 0.2 -- -- 91
2020-04-07 21:00:00 12.3 9 Sur 18 Sur 0 -- -- 78
2020-04-07 20:00:00 13.2 10 Sudeste 17 Sur 0 -- -- 69
2020-04-07 19:00:00 14.3 12 Sur 17 Sur 0 -- -- 69
2020-04-07 18:00:00 11.8 7 Sur 47 Sudoeste 0.2 -- -- 87
2020-04-07 17:00:00 16 9 Sudoeste 22 Sur 0 -- -- 54
2020-04-07 16:00:00 15.7 18 Sudoeste 27 Sudoeste 0 -- -- 58
2020-04-07 15:00:00 16.8 8 Sur 25 Sudoeste 0 -- -- 59
2020-04-07 14:00:00 14.9 9 Oeste 22 Sudoeste 0 -- -- 62
2020-04-07 13:00:00 14.2 13 Sudoeste 20 Sur 0 -- -- 66
2020-04-07 12:00:00 13.8 6 Sudoeste 18 Oeste 0 -- -- 72
2020-04-07 11:00:00 12.6 8 Sudoeste 17 Sur 0 -- -- 73
2020-04-07 10:00:00 11.4 6 Sudeste 13 Sudoeste 0 -- -- 81
2020-04-07 09:00:00 9.8 7 Sudoeste 10 Sudoeste 0 -- -- 86
2020-04-07 08:00:00 8.7 8 Sudoeste 15 Sudoeste 0 -- -- 88
2020-04-07 07:00:00 9.2 11 Sur 15 Sur 0 -- -- 87
2020-04-07 06:00:00 8.9 9 Sur 11 Sudoeste 0 -- -- 88
2020-04-07 05:00:00 9 0 Calma 4 Noroeste 0 -- -- 93
2020-04-07 04:00:00 8.6 2 Este 7 Nordeste 0 -- -- 95
2020-04-07 03:00:00 8.8 4 Nordeste 14 Nordeste 0 -- -- 93
2020-04-07 02:00:00 9.2 9 Nordeste 16 Nordeste 0 -- -- 91
2020-04-07 01:00:00 8.8 13 Nordeste 21 Nordeste 0 -- -- 86
2020-04-07 00:00:00 8.9 12 Este 22 Este 0 -- -- 87
2020-04-06 23:00:00 8.9 11 Este 16 Este 0 -- -- 89
2020-04-06 22:00:00 9.2 5 Nordeste 8 Nordeste 0 -- -- 89
2020-04-06 21:00:00 10 4 Oeste 12 Sudoeste 0.2 -- -- 86
2020-04-06 20:00:00 10.9 10 Oeste 19 Sudoeste 0 -- -- 77
2020-04-06 19:00:00 11.3 9 Oeste 20 Oeste 0 -- -- 73
2020-04-06 18:00:00 11 15 Oeste 36 Oeste 0 -- -- 80
2020-04-06 17:00:00 12.1 17 Oeste 26 Oeste 0 -- -- 77
2020-04-06 16:00:00 12.1 15 Oeste 28 Oeste 0.4 -- -- 84
2020-04-06 15:00:00 13.9 19 Sudoeste 32 Sudoeste 0 -- -- 68
2020-04-06 14:00:00 13.1 19 Sudoeste 31 Oeste 0 -- -- 76
2020-04-06 13:00:00 11.3 19 Oeste 30 Oeste 0 -- -- 84
2020-04-06 12:00:00 10.3 19 Oeste 36 Sudoeste 0 -- -- 89
2020-04-06 11:00:00 10.2 21 Sudoeste 32 Oeste 0 -- -- 89
2020-04-06 10:00:00 10.3 12 Sudoeste 30 Sudoeste 0 -- -- 89
2020-04-06 09:00:00 10.2 18 Sudoeste 27 Sudoeste 0.2 -- -- 89
2020-04-06 08:00:00 9.8 13 Sudoeste 26 Sudoeste 0 -- -- 88
2020-04-06 07:00:00 9.8 14 Sur 27 Sudoeste 0 -- -- 88
2020-04-06 06:00:00 10.1 20 Sudoeste 31 Sudoeste 0 -- -- 88
2020-04-06 05:00:00 10 16 Sur 24 Sudoeste 0 -- -- 86
2020-04-06 04:00:00 10 19 Sur 31 Sur 0 -- -- 86
2020-04-06 03:00:00 9.7 19 Sudeste 26 Sur 0.2 -- -- 89
2020-04-06 02:00:00 9.6 10 Sudoeste 16 Sudoeste 0.2 -- -- 92
2020-04-06 01:00:00 9.4 8 Sudoeste 18 Sudoeste 0.6 -- -- 91
2020-04-06 00:00:00 10.7 11 Sudoeste 22 Sur 0.2 -- -- 82
2020-04-05 23:00:00 11.9 15 Sur 23 Sur 0 -- -- 70
2020-04-05 22:00:00 11.7 13 Sur 23 Sur 0 -- -- 69
2020-04-05 21:00:00 12.1 14 Sur 22 Sur 0 -- -- 68
2020-04-05 20:00:00 13.6 15 Sudoeste 34 Sur 0 -- -- 62
2020-04-05 19:00:00 13.9 17 Sur 30 Sur 0 -- -- 59
2020-04-05 18:00:00 14.5 21 Sur 33 Sur 0 -- -- 58
2020-04-05 17:00:00 14.5 17 Sur 33 Sudoeste 0 -- -- 58
2020-04-05 16:00:00 16 16 Sudoeste 32 Sudoeste 0 -- -- 55
2020-04-05 15:00:00 15.6 18 Sur 32 Sudeste 0 -- -- 54
2020-04-05 14:00:00 14.5 14 Sur 31 Sudeste 0 -- -- 60
2020-04-05 13:00:00 14.2 18 Sur 28 Sudoeste 0 -- -- 60
2020-04-05 12:00:00 14 16 Sudoeste 37 Sur 0 -- -- 57
2020-04-05 11:00:00 12.3 13 Sur 25 Sudoeste 0 -- -- 62
2020-04-05 10:00:00 9.9 15 Sur 27 Sur 0 -- -- 74
2020-04-05 09:00:00 7.9 16 Sudeste 21 Sudeste 0 -- -- 83
2020-04-05 08:00:00 7 14 Sur 22 Sur 0 -- -- 85
2020-04-05 07:00:00 7.5 11 Sur 30 Sur 0 -- -- 85
2020-04-05 06:00:00 7.4 18 Sur 28 Sur 0 -- -- 84
2020-04-05 05:00:00 7.4 16 Sudeste 26 Sur 0 -- -- 82
2020-04-05 04:00:00 7.4 18 Sudeste 32 Sudeste 0 -- -- 80
2020-04-05 03:00:00 8 22 Sur 44 Sur 0 -- -- 76
2020-04-05 02:00:00 8.3 30 Sur 47 Sur 0 -- -- 74
2020-04-05 01:00:00 8.5 25 Sur 46 Sudeste 0 -- -- 74
2020-04-05 00:00:00 8.9 30 Sudeste 46 Sur 0 -- -- 72
2020-04-04 23:00:00 9.1 26 Sudeste 37 Sudeste 0 -- -- 68
2020-04-04 22:00:00 10 20 Sur 34 Sur 0 -- -- 61
2020-04-04 21:00:00 10.6 19 Sur 33 Sur 0 -- -- 56
2020-04-04 20:00:00 11.4 22 Sur 42 Sur 0 -- -- 57
2020-04-04 19:00:00 12.4 21 Sur 46 Sur 0 -- -- 53
2020-04-04 18:00:00 12.9 29 Sur 47 Sur 0 -- -- 50
2020-04-04 17:00:00 14.3 30 Sudeste 50 Sur 0 -- -- 48
2020-04-04 16:00:00 14.2 29 Sur 51 Sudeste 0 -- -- 46
2020-04-04 15:00:00 14 26 Sur 42 Sur 0 -- -- 47
2020-04-04 14:00:00 13.6 28 Sudeste 45 Sudeste 0 -- -- 45
2020-04-04 13:00:00 12.8 24 Sur 44 Sur 0 -- -- 48
2020-04-04 12:00:00 12.1 23 Sur 41 Sur 0 -- -- 52
2020-04-04 11:00:00 10.5 19 Sudeste 39 Sudeste 0 -- -- 57
2020-04-04 10:00:00 9.1 22 Sudeste 34 Sudeste 0 -- -- 53
2020-04-04 09:00:00 7.6 19 Sudeste 31 Sudeste 0 -- -- 58
2020-04-04 08:00:00 6.8 17 Sudeste 26 Sudeste 0 -- -- 58
2020-04-04 07:00:00 6.8 19 Sudeste 24 Sudeste 0 -- -- 59
2020-04-04 06:00:00 6.5 17 Sudeste 20 Sudeste 0 -- -- 62
2020-04-04 05:00:00 7.1 13 Sudeste 23 Sudeste 0 -- -- 62
2020-04-04 04:00:00 6.9 14 Sudeste 22 Sudeste 0 -- -- 65
2020-04-04 03:00:00 7.1 15 Sudeste 21 Sudeste 0 -- -- 65
2020-04-04 02:00:00 7.3 15 Sudeste 19 Sudeste 0 -- -- 60
2020-04-04 01:00:00 6.6 3 Este 9 Este 0 -- -- 62
2020-04-04 00:00:00 5.8 8 Este 10 Este 0 -- -- 69
2020-04-03 23:00:00 6.1 9 Este 10 Sudeste 0 -- -- 63
2020-04-03 22:00:00 6.4 2 Este 4 Este 0 -- -- 64
2020-04-03 21:00:00 9 0 Calma 8 Norte 0 -- -- 56
2020-04-03 20:00:00 11 4 Norte 13 Noroeste 0 -- -- 49
2020-04-03 19:00:00 11.7 7 Norte 15 Noroeste 0 -- -- 49
2020-04-03 18:00:00 11.7 7 Noroeste 15 Norte 0 -- -- 50
2020-04-03 17:00:00 11.2 8 Norte 16 Noroeste 0 -- -- 53
2020-04-03 16:00:00 10.5 8 Oeste 20 Oeste 0 -- -- 55
2020-04-03 15:00:00 9.5 9 Noroeste 19 Noroeste 0 -- -- 59
2020-04-03 14:00:00 8.5 9 Noroeste 18 Oeste 0 -- -- 63
2020-04-03 13:00:00 7.7 6 Noroeste 18 Oeste 0 -- -- 64
2020-04-03 12:00:00 6.6 8 Noroeste 16 Oeste 0 -- -- 58
2020-04-03 11:00:00 5.4 9 Oeste 21 Sudoeste 0 -- -- 66
2020-04-03 10:00:00 3.1 15 Sudoeste 22 Sudoeste 0 -- -- 86
2020-04-03 09:00:00 0.3 11 Sudoeste 13 Sudoeste 0 -- -- 93
2020-04-03 08:00:00 -1 7 Sudoeste 9 Sudoeste 0 -- -- 94
2020-04-03 07:00:00 -1.1 4 Sudoeste 6 Sudoeste 0 -- -- 97
2020-04-03 06:00:00 -0.9 3 Sur 6 Sudoeste 0 -- -- 96
2020-04-03 05:00:00 -0.5 5 Sudoeste 8 Sudoeste 0 -- -- 95
2020-04-03 04:00:00 0.4 2 Sur 8 Este 0 -- -- 95
2020-04-03 03:00:00 -0.1 6 Este 10 Este 0 -- -- 94
2020-04-03 02:00:00 1.1 4 Nordeste 11 Nordeste 0 -- -- 93
2020-04-03 01:00:00 1.6 7 Este 19 Nordeste 0 -- -- 91
2020-04-03 00:00:00 2.6 12 Nordeste 19 Nordeste 0 -- -- 90
2020-04-02 23:00:00 3.8 12 Nordeste 35 Nordeste 0 -- -- 87
2020-04-02 22:00:00 5 18 Nordeste 31 Nordeste 0 -- -- 85
2020-04-02 21:00:00 5.5 15 Nordeste 27 Nordeste 0 -- -- 86
2020-04-02 20:00:00 6.7 17 Nordeste 30 Nordeste 0 -- -- 82
2020-04-02 19:00:00 7.1 17 Nordeste 35 Nordeste 0 -- -- 80
2020-04-02 18:00:00 7.3 13 Norte 26 Norte 0 -- -- 88
2020-04-02 17:00:00 6.8 6 Nordeste 13 Nordeste 0 -- -- 94
2020-04-02 16:00:00 7 9 Nordeste 22 Norte 1 -- -- 95
2020-04-02 15:00:00 8 10 Nordeste 21 Este 0 -- -- 83
2020-04-02 14:00:00 6.9 8 Nordeste 13 Este 0 -- -- 96
2020-04-02 13:00:00 5.7 6 Nordeste 12 Nordeste 0 -- -- 100
2020-04-02 12:00:00 5.1 6 Nordeste 9 Nordeste 0 -- -- 100
2020-04-02 11:00:00 4.6 6 Nordeste 10 Nordeste 0.4 -- -- 100
2020-04-02 10:00:00 4 4 Nordeste 7 Norte 0 -- -- 100
2020-04-02 09:00:00 3.3 4 Nordeste 15 Este 0 -- -- 100
2020-04-02 08:00:00 3 10 Este 16 Este 0 -- -- 100
2020-04-02 07:00:00 2.8 8 Este 15 Este 0 -- -- 100
2020-04-02 06:00:00 3 5 Este 7 Nordeste 0 -- -- 99
2020-04-02 05:00:00 3 2 Sudeste 9 Oeste 0 -- -- 97
2020-04-02 04:00:00 4 8 Oeste 15 Sudeste 0 -- -- 92
2020-04-02 03:00:00 4.5 9 Sudeste 18 Sudeste 0 -- -- 90
2020-04-02 02:00:00 4.4 10 Sudeste 16 Sudeste 0 -- -- 93
2020-04-02 01:00:00 4.5 6 Este 14 Sudeste 0 -- -- 94
2020-04-02 00:00:00 5.2 9 Sudeste 15 Este 0 -- -- 90
2020-04-01 23:00:00 5.2 12 Este 16 Este 0 -- -- 90
2020-04-01 22:00:00 5.1 13 Este 19 Este 0 -- -- 92
2020-04-01 21:00:00 4.9 9 Este 14 Nordeste 0.4 -- -- 95
2020-04-01 20:00:00 5.3 5 Sudeste 16 Sudeste 1.6 -- -- 94
2020-04-01 19:00:00 6.5 4 Nordeste 9 Nordeste 0 -- -- 93
2020-04-01 18:00:00 7 8 Nordeste 14 Oeste 0 -- -- 94
2020-04-01 17:00:00 6.4 8 Oeste 19 Sudoeste 0.6 -- -- 97
2020-04-01 16:00:00 4.2 18 Sudoeste 35 Sur 3.8 -- -- 93
2020-04-01 15:00:00 8.8 12 Norte 21 Norte 0 -- -- 82
2020-04-01 14:00:00 8.9 10 Norte 18 Noroeste 0 -- -- 83
2020-04-01 13:00:00 7.9 9 Norte 17 Oeste 0 -- -- 84
2020-04-01 12:00:00 7.9 13 Oeste 19 Sur 0 -- -- 84
2020-04-01 11:00:00 7.9 5 Sudeste 14 Sudeste 0 -- -- 84
2020-04-01 10:00:00 6.4 6 Sudeste 16 Sudeste 0 -- -- 88
2020-04-01 09:00:00 5.2 9 Sudeste 16 Sudeste 0 -- -- 91
2020-04-01 08:00:00 3.7 5 Este 19 Sudeste 0 -- -- 93
2020-04-01 07:00:00 4.3 13 Sudeste 20 Sudeste 0 -- -- 92
2020-04-01 06:00:00 4.6 8 Sudeste 22 Sur 0.4 -- -- 92
2020-04-01 05:00:00 5.1 18 Sudeste 28 Sudeste 0 -- -- 90
2020-04-01 04:00:00 5 19 Sudeste 33 Sudeste 0 -- -- 90
2020-04-01 03:00:00 4.7 22 Sudeste 34 Sudeste 0.2 -- -- 93
2020-04-01 02:00:00 4.7 28 Sudeste 41 Sudeste 0.2 -- -- 92
2020-04-01 01:00:00 4.4 21 Sudeste 40 Sudeste 0 -- -- 93
2020-04-01 00:00:00 4.3 26 Este 47 Sudeste 0.8 -- -- 94
2020-03-31 23:00:00 4.5 30 Sudeste 47 Sudeste 0 -- -- 93
2020-03-31 22:00:00 4.1 26 Sudeste 45 Sudeste 0 -- -- 94
2020-03-31 21:00:00 4.2 13 Este 41 Este 0.2 -- -- 95
2020-03-31 20:00:00 4.5 18 Este 36 Este 0 -- -- 92
2020-03-31 19:00:00 5.2 21 Este 39 Este 0 -- -- 89
2020-03-31 18:00:00 5.1 22 Este 35 Sudeste 0.6 -- -- 93
2020-03-31 17:00:00 5.7 23 Este 38 Sudeste 0 -- -- 87
2020-03-31 16:00:00 4.5 25 Este 50 Este 0.2 -- -- 91
2020-03-31 15:00:00 3.3 31 Este 48 Este 0 -- -- 90
2020-03-31 14:00:00 2.3 21 Este 43 Este 0 -- -- 91
2020-03-31 13:00:00 1.1 25 Este 40 Este 0 -- -- 92
2020-03-31 12:00:00 0.8 21 Este 46 Sudeste 0.6 -- -- 91
2020-03-31 11:00:00 0.5 31 Sudeste 46 Sudeste 0 -- -- 89
2020-03-31 10:00:00 -0.6 17 Este 44 Este 0 -- -- 90
2020-03-31 09:00:00 -2.2 23 Nordeste 47 Nordeste 0 -- -- 95
2020-03-31 08:00:00 -2.9 30 Nordeste 44 Nordeste 0 -- -- 95
2020-03-31 07:00:00 -2.9 32 Nordeste 44 Nordeste 0 -- -- 96
2020-03-31 06:00:00 -2.8 26 Nordeste 55 Este 0 -- -- 97
2020-03-31 05:00:00 -2.6 30 Este 49 Este 0 -- -- 97
2020-03-31 04:00:00 -2.6 31 Este 46 Este 0 -- -- 98
2020-03-31 03:00:00 -2.5 26 Este 44 Este 0 -- -- 97
2020-03-31 02:00:00 -2.3 23 Este 44 Este 0 -- -- 96
2020-03-31 01:00:00 -1.8 28 Este 45 Este 0 -- -- 92
2020-03-31 00:00:00 -0.7 23 Este 44 Este 0 -- -- 81
2020-03-30 23:00:00 0.4 23 Este 39 Este 0 -- -- 63
2020-03-30 22:00:00 0.4 18 Nordeste 32 Nordeste 0 -- -- 64
2020-03-30 21:00:00 0.7 17 Nordeste 30 Nordeste 0 -- -- 63
2020-03-30 20:00:00 1.6 18 Nordeste 27 Nordeste 0 -- -- 56
2020-03-30 19:00:00 2.1 15 Nordeste 28 Nordeste 0 -- -- 54
2020-03-30 18:00:00 2.5 17 Nordeste 32 Nordeste 0 -- -- 53
2020-03-30 17:00:00 2.1 19 Nordeste 35 Nordeste 0.2 -- -- 55
2020-03-30 16:00:00 2.4 16 Nordeste 29 Nordeste 0 -- -- 58
2020-03-30 15:00:00 1.6 17 Nordeste 26 Nordeste 0 -- -- 62
2020-03-30 14:00:00 0.4 19 Nordeste 30 Nordeste 0 -- -- 64
2020-03-30 13:00:00 -0.3 14 Nordeste 25 Nordeste 0.2 -- -- 74
2020-03-30 12:00:00 -0.7 11 Nordeste 24 Nordeste 0 -- -- 78
2020-03-30 11:00:00 -1.7 12 Norte 23 Nordeste 0 -- -- 88
2020-03-30 10:00:00 -2.3 13 Nordeste 24 Nordeste 0 -- -- 97
2020-03-30 09:00:00 -1.3 7 Norte 16 Nordeste 0 -- -- 97
2020-03-30 08:00:00 -1.3 12 Nordeste 21 Nordeste 0 -- -- 95
2020-03-30 07:00:00 -0.7 10 Norte 23 Norte 0 -- -- 96
2020-03-30 06:00:00 0.3 13 Norte 24 Norte 0 -- -- 91
2020-03-30 05:00:00 0.7 9 Norte 21 Nordeste 0 -- -- 91
2020-03-30 04:00:00 1.2 17 Nordeste 31 Norte 0 -- -- 91
2020-03-30 03:00:00 2 16 Nordeste 32 Nordeste 0 -- -- 89
2020-03-30 02:00:00 2.2 17 Nordeste 25 Nordeste 0 -- -- 89
2020-03-30 01:00:00 2.4 15 Nordeste 27 Nordeste 0 -- -- 90
2020-03-30 00:00:00 3 18 Nordeste 28 Nordeste 0 -- -- 88
2020-03-29 23:00:00 3.7 15 Nordeste 24 Norte 0 -- -- 85
2020-03-29 22:00:00 4.8 14 Nordeste 29 Norte 0 -- -- 76
2020-03-29 21:00:00 6.8 14 Norte 28 Norte 0 -- -- 65
2020-03-29 20:00:00 9.6 14 Norte 29 Norte 0 -- -- 53
2020-03-29 19:00:00 11.6 17 Norte 27 Norte 0 -- -- 41
2020-03-29 18:00:00 12.7 14 Norte 27 Norte 0 -- -- 41
2020-03-29 17:00:00 12.8 14 Noroeste 28 Norte 0 -- -- 43
2020-03-29 16:00:00 12.8 12 Noroeste 29 Noroeste 0 -- -- 45
2020-03-29 15:00:00 12.5 13 Noroeste 24 Norte 0 -- -- 46
2020-03-29 14:00:00 12 11 Norte 23 Norte 0 -- -- 51
2020-03-29 13:00:00 11.4 9 Noroeste 19 Oeste 0 -- -- 54
2020-03-29 12:00:00 10.9 8 Noroeste 14 Oeste 0 -- -- 53
2020-03-29 11:00:00 9.9 7 Oeste 15 Sudoeste 0 -- -- 50
2020-03-29 10:00:00 7.5 8 Sudoeste 13 Sudoeste 0 -- -- 61
2020-03-29 09:00:00 4.9 2 Este 5 Este 0 -- -- 68
2020-03-29 08:00:00 4.3 4 Este 9 Sur 0 -- -- 67
2020-03-29 07:00:00 6.4 9 Sur 14 Sur 0 -- -- 57
2020-03-29 06:00:00 6.2 11 Sur 17 Sur 0 -- -- 57
2020-03-29 05:00:00 6.3 8 Sur 12 Sur 0 -- -- 59
2020-03-29 03:00:00 7.9 5 Sudeste 8 Sudeste 0 -- -- 52
2020-03-29 01:00:00 7.2 7 Sudeste 12 Sudeste 0 -- -- 54
2020-03-29 00:00:00 7.4 9 Este 14 Este 0 -- -- 55
2020-03-28 23:00:00 6.6 13 Este 14 Este 0 -- -- 56
2020-03-28 22:00:00 7.1 12 Este 14 Nordeste 0 -- -- 55
2020-03-28 21:00:00 8.2 11 Este 14 Este 0 -- -- 50
2020-03-28 20:00:00 8.7 12 Este 15 Este 0 -- -- 52
2020-03-28 19:00:00 11.6 10 Este 20 Nordeste 0 -- -- 42
2020-03-28 18:00:00 12.3 9 Este 22 Este 0 -- -- 41
2020-03-28 17:00:00 13.3 10 Este 26 Nordeste 0 -- -- 40
2020-03-28 16:00:00 12.9 11 Nordeste 24 Norte 0 -- -- 38
2020-03-28 15:00:00 12.8 8 Nordeste 28 Nordeste 0 -- -- 40
2020-03-28 14:00:00 12 10 Nordeste 27 Nordeste 0 -- -- 42
2020-03-28 13:00:00 11.4 6 Sudeste 22 Este 0 -- -- 40
2020-03-28 12:00:00 10.7 10 Este 23 Este 0 -- -- 38
2020-03-28 11:00:00 9.5 10 Nordeste 18 Este 0 -- -- 34
2020-03-28 10:00:00 8.5 9 Sudeste 22 Este 0 -- -- 38
2020-03-28 09:00:00 7 12 Este 21 Este 0 -- -- 48
2020-03-28 08:00:00 3.8 11 Este 18 Este 0 -- -- 65
2020-03-28 07:00:00 3 5 Este 13 Este 0 -- -- 64
2020-03-28 06:00:00 3.3 5 Este 12 Este 0 -- -- 63
2020-03-28 05:00:00 3.1 4 Sudeste 8 Sudeste 0 -- -- 63
2020-03-28 04:00:00 3.5 6 Sudeste 9 Sudeste 0 -- -- 61
2020-03-28 03:00:00 3.4 4 Sudeste 12 Sudeste 0 -- -- 59
2020-03-28 02:00:00 3.1 10 Sudeste 19 Sudeste 0 -- -- 60
2020-03-28 01:00:00 3.8 14 Sudeste 23 Sudeste 0 -- -- 55
2020-03-28 00:00:00 4.1 15 Sudeste 21 Sudeste 0 -- -- 52
2020-03-27 23:00:00 4 11 Este 17 Este 0 -- -- 48
2020-03-27 22:00:00 4.3 11 Este 19 Este 0 -- -- 41
2020-03-27 21:00:00 4.9 11 Este 19 Este 0 -- -- 36
2020-03-27 20:00:00 5.8 15 Este 23 Este 0 -- -- 34
2020-03-27 19:00:00 7.6 14 Este 29 Este 0 -- -- 31
2020-03-27 18:00:00 8.7 15 Este 33 Este 0 -- -- 31
2020-03-27 17:00:00 9 19 Nordeste 34 Este 0 -- -- 34
2020-03-27 16:00:00 9.1 21 Este 44 Este 0 -- -- 33
2020-03-27 15:00:00 8.7 19 Este 41 Nordeste 0 -- -- 40
2020-03-27 14:00:00 7.6 23 Este 49 Este 0 -- -- 47
2020-03-27 13:00:00 6.1 28 Este 44 Este 0 -- -- 55
2020-03-27 12:00:00 5.4 24 Este 46 Nordeste 0 -- -- 59
2020-03-27 11:00:00 4.6 22 Este 38 Nordeste 0 -- -- 62
2020-03-27 10:00:00 3.1 20 Este 36 Este 0 -- -- 64
2020-03-27 09:00:00 1 27 Este 41 Este 0 -- -- 68
2020-03-27 08:00:00 -1.1 25 Este 41 Este 0 -- -- 74
2020-03-27 07:00:00 -1.6 24 Este 41 Este 0 -- -- 68
2020-03-27 06:00:00 -1.3 23 Este 37 Este 0 -- -- 70
2020-03-27 05:00:00 -1.3 16 Este 27 Este 0 -- -- 74
2020-03-27 04:00:00 -2 11 Este 17 Nordeste 0 -- -- 76
2020-03-27 03:00:00 -1.5 6 Este 25 Nordeste 0 -- -- 73
2020-03-27 02:00:00 -0.5 18 Nordeste 32 Nordeste 0 -- -- 73
2020-03-27 01:00:00 0.9 14 Nordeste 29 Nordeste 0 -- -- 69
2020-03-27 00:00:00 1.6 13 Nordeste 23 Nordeste 0 -- -- 78
2020-03-26 23:00:00 2.4 14 Nordeste 24 Nordeste 0 -- -- 77
2020-03-26 22:00:00 3 13 Nordeste 22 Nordeste 0 -- -- 76
2020-03-26 21:00:00 3.6 13 Nordeste 29 Nordeste 0 -- -- 70
2020-03-26 20:00:00 4.3 14 Nordeste 23 Norte 0 -- -- 68
2020-03-26 19:00:00 5.5 12 Norte 32 Nordeste 0 -- -- 60
2020-03-26 18:00:00 6.1 15 Nordeste 32 Nordeste 0 -- -- 56
2020-03-26 17:00:00 6.6 18 Norte 35 Norte 0 -- -- 55
2020-03-26 16:00:00 6.3 22 Norte 40 Norte 0 -- -- 58
2020-03-26 15:00:00 6.3 24 Nordeste 41 Norte 0 -- -- 56
2020-03-26 14:00:00 6 14 Norte 44 Norte 0 -- -- 59
2020-03-26 13:00:00 6 24 Norte 46 Norte 0 -- -- 59
2020-03-26 12:00:00 5.9 27 Norte 43 Norte 0 -- -- 59
2020-03-26 11:00:00 4.9 20 Norte 31 Norte 0 -- -- 70
2020-03-26 10:00:00 3.3 18 Norte 30 Norte 0 -- -- 74
2020-03-26 09:00:00 1.8 7 Noroeste 13 Noroeste 0 -- -- 81
2020-03-26 08:00:00 0.6 3 Oeste 5 Sur 0 -- -- 71
2020-03-26 07:00:00 -0.7 2 Oeste 7 Sudeste 0 -- -- 68
2020-03-26 06:00:00 -2.1 6 Sudeste 8 Este 0 -- -- 81
2020-03-26 05:00:00 -1.1 3 Norte 14 Norte 0 -- -- 75
2020-03-26 04:00:00 -0.2 7 Nordeste 17 Nordeste 0 -- -- 59
2020-03-26 03:00:00 0.9 10 Nordeste 20 Norte 0 -- -- 43
2020-03-26 02:00:00 1.3 8 Nordeste 23 Nordeste 0 -- -- 51
2020-03-26 01:00:00 2.5 9 Nordeste 22 Nordeste 0 -- -- 46
2020-03-26 00:00:00 3.7 9 Nordeste 15 Nordeste 0 -- -- 42
2020-03-25 23:00:00 4.6 10 Este 17 Nordeste 0 -- -- 49
2020-03-25 22:00:00 5.6 7 Este 23 Nordeste 0 -- -- 48
2020-03-25 21:00:00 6.7 7 Nordeste 15 Norte 0 -- -- 42
2020-03-25 20:00:00 8.9 9 Norte 18 Norte 0 -- -- 41
2020-03-25 19:00:00 11 14 Norte 26 Norte 0 -- -- 38
2020-03-25 18:00:00 12.3 12 Noroeste 27 Norte 0 -- -- 39
2020-03-25 17:00:00 12.7 13 Norte 28 Noroeste 0 -- -- 42
2020-03-25 16:00:00 12.7 16 Noroeste 32 Noroeste 0 -- -- 47
2020-03-25 15:00:00 11.3 17 Noroeste 29 Noroeste 0 -- -- 46
2020-03-25 14:00:00 11.4 16 Noroeste 28 Noroeste 0 -- -- 57
2020-03-25 13:00:00 10.3 17 Oeste 28 Oeste 0 -- -- 63
2020-03-25 12:00:00 9.5 12 Oeste 22 Oeste 0 -- -- 71
2020-03-25 11:00:00 8.9 8 Oeste 19 Oeste 0 -- -- 69
2020-03-25 10:00:00 7.7 8 Oeste 15 Oeste 0 -- -- 73
2020-03-25 09:00:00 6.4 6 Sudoeste 9 Sudoeste 0 -- -- 73
2020-03-25 08:00:00 4.1 7 Sur 8 Sur 0 -- -- 80
2020-03-25 07:00:00 3.6 3 Sudoeste 9 Oeste 0 -- -- 80
2020-03-25 06:00:00 4.2 5 Noroeste 8 Oeste 0 -- -- 77
2020-03-25 05:00:00 4.6 5 Oeste 9 Oeste 0 -- -- 72
2020-03-25 04:00:00 5.2 8 Sudeste 18 Sudeste 0 -- -- 72
2020-03-25 03:00:00 5.4 13 Sudeste 18 Sudeste 0 -- -- 71
2020-03-25 02:00:00 6 10 Sudeste 26 Este 0 -- -- 68
2020-03-25 01:00:00 6.2 15 Este 23 Este 0 -- -- 68
2020-03-25 00:00:00 6.5 9 Este 20 Este 0 -- -- 68
2020-03-24 23:00:00 6.6 11 Este 34 Sudeste 0 -- -- 67
2020-03-24 22:00:00 6.6 13 Este 35 Sudeste 0 -- -- 69
2020-03-24 21:00:00 6.9 18 Este 36 Sudeste 0 -- -- 68
2020-03-24 20:00:00 7.7 21 Este 37 Este 0 -- -- 66
2020-03-24 19:00:00 9 24 Este 38 Este 0 -- -- 65
2020-03-24 18:00:00 10.3 20 Este 44 Este 0 -- -- 60
2020-03-24 17:00:00 10.3 26 Este 51 Este 0 -- -- 58
2020-03-24 16:00:00 10.6 28 Este 48 Este 0 -- -- 60
2020-03-24 15:00:00 10.5 27 Nordeste 46 Este 0 -- -- 64
2020-03-24 14:00:00 10.6 31 Este 53 Nordeste 0 -- -- 62
2020-03-24 13:00:00 10.3 27 Este 50 Este 0 -- -- 65
2020-03-24 12:00:00 9.8 28 Este 54 Este 0 -- -- 67
2020-03-24 11:00:00 8.1 31 Este 50 Este 0 -- -- 80
2020-03-24 10:00:00 7.1 29 Este 48 Este 0 -- -- 84
2020-03-24 09:00:00 6.7 24 Este 43 Este 0 -- -- 86
2020-03-24 08:00:00 5.8 19 Este 45 Este 0 -- -- 90
2020-03-24 07:00:00 5.4 26 Este 40 Este 0 -- -- 91
2020-03-24 06:00:00 5.6 22 Este 36 Este 0 -- -- 88
2020-03-24 05:00:00 5.5 17 Este 32 Este 0 -- -- 90
2020-03-24 04:00:00 5.5 20 Este 40 Este 0 -- -- 93
2020-03-24 03:00:00 5.8 21 Este 36 Este 0 -- -- 95
2020-03-24 02:00:00 5.8 22 Este 35 Este 0 -- -- 92
2020-03-24 01:00:00 6 21 Este 36 Este 0 -- -- 92
2020-03-24 00:00:00 6.3 22 Este 37 Sudeste 0 -- -- 89
2020-03-23 23:00:00 6.7 17 Este 33 Este 0 -- -- 88
2020-03-23 22:00:00 7.1 22 Este 45 Este 0 -- -- 87
2020-03-23 21:00:00 7.3 24 Este 41 Este 0 -- -- 84
2020-03-23 20:00:00 7.5 20 Este 35 Este 0 -- -- 81
2020-03-23 19:00:00 8.4 18 Este 40 Sudeste 0 -- -- 74
2020-03-23 18:00:00 9.9 26 Este 44 Este 0 -- -- 71
2020-03-23 17:00:00 10.7 26 Este 43 Este 0 -- -- 68
2020-03-23 16:00:00 11.5 21 Este 40 Este 0 -- -- 65
2020-03-23 15:00:00 11.3 23 Este 44 Nordeste 0 -- -- 65
2020-03-23 14:00:00 10.6 23 Este 41 Nordeste 0 -- -- 66
2020-03-23 13:00:00 9.7 23 Este 41 Este 0 -- -- 68
2020-03-23 12:00:00 9 19 Este 41 Este 0 -- -- 73
2020-03-23 11:00:00 7.6 26 Este 40 Este 0 -- -- 81
2020-03-23 10:00:00 7.4 25 Este 40 Este 0 -- -- 82
2020-03-23 09:00:00 5.8 22 Este 39 Este 0 -- -- 91
2020-03-23 08:00:00 5.3 22 Este 34 Este 0 -- -- 93
2020-03-23 07:00:00 5 22 Este 31 Este 0 -- -- 94
2020-03-23 06:00:00 4.8 22 Nordeste 32 Nordeste 0 -- -- 93
2020-03-23 05:00:00 5.5 19 Este 32 Este 0 -- -- 90
2020-03-23 04:00:00 5.3 16 Este 29 Este 0 -- -- 90
2020-03-23 03:00:00 4.9 17 Este 28 Este 0 -- -- 91
2020-03-23 02:00:00 5.6 14 Este 33 Este 0 -- -- 87
2020-03-23 01:00:00 5.5 23 Este 35 Nordeste 0 -- -- 88
2020-03-23 00:00:00 5.9 23 Este 35 Este 0 -- -- 85
2020-03-22 23:00:00 6.4 17 Este 25 Este 0 -- -- 81
2020-03-22 22:00:00 7.1 15 Este 28 Este 0 -- -- 75
2020-03-22 21:00:00 7.5 17 Este 29 Este 0 -- -- 74
2020-03-22 20:00:00 7.5 15 Este 22 Este 0 -- -- 76
2020-03-22 19:00:00 7.9 8 Nordeste 29 Nordeste 0 -- -- 85
2020-03-22 18:00:00 9.8 11 Nordeste 30 Nordeste 0 -- -- 75
2020-03-22 17:00:00 10.9 17 Este 29 Este 0 -- -- 57
2020-03-22 16:00:00 11.3 16 Este 33 Este 0 -- -- 60
2020-03-22 15:00:00 11.1 20 Este 35 Nordeste 0 -- -- 60
2020-03-22 14:00:00 11.2 16 Este 34 Este 0 -- -- 68
2020-03-22 13:00:00 10.5 16 Este 33 Este 0 -- -- 73
2020-03-22 12:00:00 8.4 14 Nordeste 23 Este 0 -- -- 85
2020-03-22 11:00:00 7.2 15 Nordeste 21 Este 0 -- -- 91
2020-03-22 10:00:00 6.4 14 Este 21 Este 0 -- -- 98
2020-03-22 09:00:00 5.4 8 Este 14 Este 0 -- -- 100
2020-03-22 08:00:00 5.1 7 Nordeste 11 Nordeste 0.2 -- -- 100
2020-03-22 07:00:00 4.9 5 Nordeste 11 Nordeste 0 -- -- 100
2020-03-22 06:00:00 4.8 8 Nordeste 13 Nordeste 0 -- -- 100
2020-03-22 05:00:00 4.7 8 Nordeste 14 Nordeste 0 -- -- 100
2020-03-22 04:00:00 4.8 7 Nordeste 11 Nordeste 0.2 -- -- 99
2020-03-22 03:00:00 5.2 4 Norte 7 Nordeste 0.6 -- -- 98
2020-03-22 02:00:00 5.3 2 Nordeste 4 Noroeste 0.6 -- -- 96
2020-03-22 01:00:00 5.5 0 Calma 3 Sur 0 -- -- 94
2020-03-22 00:00:00 5.8 0 Calma 6 Sur 0.2 -- -- 90
2020-03-21 23:00:00 6.3 0 Calma 9 Sudoeste 0.4 -- -- 88
2020-03-21 22:00:00 6.3 4 Sudoeste 10 Sudoeste 0 -- -- 91
2020-03-21 21:00:00 6.3 3 Oeste 9 Sudoeste 0 -- -- 95
2020-03-21 20:00:00 6.9 6 Sudoeste 17 Sudoeste 0 -- -- 90
2020-03-21 19:00:00 8.2 13 Sudoeste 29 Sur 0 -- -- 81
2020-03-21 18:00:00 8.9 19 Sur 30 Sur 0 -- -- 78
2020-03-21 17:00:00 10 16 Sur 26 Sur 0 -- -- 73
2020-03-21 16:00:00 10.6 12 Sur 26 Sudeste 0 -- -- 71
2020-03-21 15:00:00 12.2 13 Sur 30 Sur 0 -- -- 68
2020-03-21 14:00:00 11.3 16 Sur 28 Sur 0 -- -- 68
2020-03-21 13:00:00 11.1 19 Sur 36 Sudeste 0 -- -- 68
2020-03-21 12:00:00 11 18 Sur 29 Sudeste 0 -- -- 71
2020-03-21 11:00:00 9.7 20 Sudeste 34 Sudeste 0 -- -- 72
2020-03-21 10:00:00 8.9 18 Sudeste 26 Sudeste 0 -- -- 76
2020-03-21 09:00:00 7.7 5 Este 24 Sudeste 0 -- -- 80
2020-03-21 08:00:00 6.3 17 Sudeste 31 Sudeste 0 -- -- 83
2020-03-21 07:00:00 5.6 22 Sudeste 32 Sudeste 0 -- -- 87
2020-03-21 06:00:00 5.7 14 Sudeste 40 Sur 0 -- -- 88
2020-03-21 05:00:00 6 29 Sudeste 49 Sudeste 0 -- -- 87
2020-03-21 04:00:00 6.2 17 Sur 33 Sur 0 -- -- 88
2020-03-21 03:00:00 7.2 19 Sudeste 40 Sur 0 -- -- 81
2020-03-21 02:00:00 6.3 12 Este 30 Este 0 -- -- 86
2020-03-21 01:00:00 6.3 7 Nordeste 28 Nordeste 0 -- -- 85
2020-03-21 00:00:00 6.6 15 Este 21 Este 0 -- -- 83
2020-03-20 23:00:00 7 9 Sudeste 30 Sudeste 0 -- -- 81
2020-03-20 22:00:00 7.2 20 Sudeste 34 Sudeste 0 -- -- 84
2020-03-20 21:00:00 7.8 16 Sur 28 Sudeste 0 -- -- 81
2020-03-20 20:00:00 7.7 22 Sudeste 31 Sudeste 0 -- -- 82
2020-03-20 19:00:00 9.3 16 Sudeste 27 Sudeste 0 -- -- 78
2020-03-20 18:00:00 10.8 15 Sudeste 29 Sur 0 -- -- 71
2020-03-20 17:00:00 11.8 16 Sudeste 30 Sudeste 0 -- -- 70
2020-03-20 16:00:00 10.9 21 Sudeste 35 Sur 0 -- -- 73
2020-03-20 15:00:00 10.9 25 Sudeste 35 Sudeste 0 -- -- 72
2020-03-20 14:00:00 12.6 22 Sudeste 31 Sur 0 -- -- 62
2020-03-20 13:00:00 11.1 18 Sudeste 31 Sur 0 -- -- 67
2020-03-20 12:00:00 10.3 18 Sudeste 32 Sur 0 -- -- 74
2020-03-20 11:00:00 9.2 18 Sudeste 32 Sur 0 -- -- 78
2020-03-20 10:00:00 8.7 17 Sur 35 Sur 0 -- -- 81
2020-03-20 09:00:00 7.6 25 Sur 42 Sudeste 0 -- -- 86
2020-03-20 08:00:00 6 13 Sudeste 24 Sudeste 0 -- -- 92
2020-03-20 07:00:00 6.1 15 Sudeste 39 Sudeste 0 -- -- 90
2020-03-20 06:00:00 6.3 26 Sudeste 37 Sudeste 0 -- -- 91
2020-03-20 05:00:00 6.3 4 Este 8 Este 0 -- -- 88
2020-03-20 04:00:00 6.8 2 Norte 13 Este 0 -- -- 85
2020-03-20 03:00:00 7.1 4 Norte 25 Sudeste 0 -- -- 85
2020-03-20 02:00:00 7.7 18 Sur 35 Sur 0 -- -- 83
2020-03-20 01:00:00 7.7 25 Sudeste 37 Sudeste 0 -- -- 84
2020-03-20 00:00:00 7.9 8 Sur 24 Sur 0 -- -- 81
2020-03-19 23:00:00 8.6 4 Oeste 21 Sudeste 0 -- -- 71
2020-03-19 22:00:00 9.1 14 Sudeste 19 Sudeste 0 -- -- 70
2020-03-19 21:00:00 9.5 8 Sudeste 22 Sur 0 -- -- 68
2020-03-19 20:00:00 10.5 14 Sur 22 Sur 0 -- -- 62
2020-03-19 19:00:00 12 13 Sur 23 Sur 0 -- -- 53
2020-03-19 18:00:00 13.1 10 Nordeste 23 Nordeste 0 -- -- 59
2020-03-19 17:00:00 14.2 15 Este 25 Nordeste 0 -- -- 57
2020-03-19 16:00:00 14.7 13 Este 24 Este 0 -- -- 52
2020-03-19 15:00:00 15.1 12 Este 20 Nordeste 0 -- -- 51
2020-03-19 14:00:00 14.1 8 Este 16 Este 0 -- -- 49
2020-03-19 13:00:00 14 5 Sudeste 18 Sur 0 -- -- 50
2020-03-19 12:00:00 13.4 5 Sur 13 Sudeste 0 -- -- 54
2020-03-19 11:00:00 12 3 Norte 8 Norte 0 -- -- 60
2020-03-19 10:00:00 9.5 5 Noroeste 9 Noroeste 0 -- -- 70
2020-03-19 09:00:00 10.1 4 Sudeste 17 Sudeste 0 -- -- 41
2020-03-19 08:00:00 8 15 Este 19 Sudeste 0 -- -- 54
2020-03-19 07:00:00 8.2 10 Este 15 Este 0 -- -- 64
2020-03-19 06:00:00 8 9 Sudeste 11 Este 0 -- -- 75
2020-03-19 05:00:00 8.9 10 Este 15 Sudeste 0 -- -- 80
2020-03-19 04:00:00 9.4 12 Sudeste 19 Sudeste 0 -- -- 78
2020-03-19 03:00:00 9.1 7 Este 12 Sudeste 0 -- -- 78
2020-03-19 02:00:00 9.6 4 Este 16 Este 0 -- -- 77
2020-03-19 01:00:00 10.7 4 Este 14 Este 0 -- -- 68
2020-03-19 00:00:00 11.1 11 Este 17 Este 0 -- -- 66
2020-03-18 23:00:00 11.3 14 Sudeste 19 Este 0 -- -- 61
2020-03-18 22:00:00 10.8 9 Este 17 Este 0 -- -- 65
2020-03-18 21:00:00 11 10 Este 21 Sudeste 0 -- -- 69
2020-03-18 20:00:00 11.2 10 Este 20 Este 0 -- -- 70
2020-03-18 19:00:00 13.2 13 Este 23 Este 0 -- -- 67
2020-03-18 18:00:00 14.3 15 Este 31 Este 0 -- -- 65
2020-03-18 17:00:00 15.7 15 Este 26 Este 0 -- -- 60
2020-03-18 16:00:00 16.3 14 Este 23 Este 0 -- -- 59
2020-03-18 15:00:00 16.2 12 Este 21 Nordeste 0 -- -- 61
2020-03-18 14:00:00 15.7 10 Nordeste 18 Nordeste 0 -- -- 64
2020-03-18 13:00:00 15 11 Nordeste 21 Nordeste 0 -- -- 63
2020-03-18 12:00:00 14.2 8 Este 18 Este 0 -- -- 62
2020-03-18 11:00:00 11.3 9 Nordeste 15 Nordeste 0 -- -- 76
2020-03-18 10:00:00 8.7 4 Norte 18 Sudeste 0 -- -- 86
2020-03-18 09:00:00 8.8 10 Sudeste 19 Sudeste 0 -- -- 79
2020-03-18 08:00:00 7.2 6 Este 13 Nordeste 0 -- -- 85
2020-03-18 07:00:00 7.8 6 Este 19 Sudeste 0 -- -- 82
2020-03-18 06:00:00 8.3 14 Sudeste 19 Sudeste 0 -- -- 81
2020-03-18 05:00:00 7.4 12 Sudeste 15 Este 0 -- -- 87
2020-03-18 04:00:00 6.9 8 Este 19 Sudeste 0 -- -- 91
2020-03-18 03:00:00 7.1 14 Este 18 Sudeste 0 -- -- 92
2020-03-18 02:00:00 7.3 14 Este 24 Este 0 -- -- 93
2020-03-18 01:00:00 7.4 11 Este 34 Este 0 -- -- 93
2020-03-18 00:00:00 7.5 23 Este 37 Este 0 -- -- 94
2020-03-17 23:00:00 7.7 25 Este 39 Este 0 -- -- 93
2020-03-17 22:00:00 7.7 22 Este 36 Este 0 -- -- 95
2020-03-17 21:00:00 8.1 18 Este 44 Este 0 -- -- 93
2020-03-17 20:00:00 8.5 24 Este 45 Este 0 -- -- 93
2020-03-17 19:00:00 9.8 18 Este 38 Este 0 -- -- 85
2020-03-17 18:00:00 10.9 27 Este 42 Este 0 -- -- 82
2020-03-17 17:00:00 10.7 21 Este 39 Este 0 -- -- 84
2020-03-17 16:00:00 10.9 21 Este 52 Este 0 -- -- 83
2020-03-17 15:00:00 10.8 32 Este 61 Este 0 -- -- 83
2020-03-17 14:00:00 9.9 36 Este 53 Este 0 -- -- 89
2020-03-17 13:00:00 8.4 27 Este 47 Este 0 -- -- 95
2020-03-17 12:00:00 7 26 Este 48 Este 0 -- -- 100
2020-03-17 11:00:00 6.6 33 Este 51 Este 0 -- -- 99
2020-03-17 10:00:00 6.2 29 Este 55 Este 0.2 -- -- 100
2020-03-17 09:00:00 5.7 30 Este 49 Este 0.2 -- -- 100
2020-03-17 08:00:00 5.3 33 Este 55 Este 0 -- -- 100
2020-03-17 07:00:00 5.3 31 Este 65 Este 3.2 -- -- 99
2020-03-17 06:00:00 5.3 32 Este 58 Este 2.4 -- -- 100
2020-03-17 05:00:00 4.9 27 Este 48 Este 0 -- -- 100
2020-03-17 04:00:00 4.8 32 Este 50 Nordeste 0 -- -- 100
2020-03-17 03:00:00 4.3 26 Este 42 Este 0.2 -- -- 100
2020-03-17 02:00:00 4.2 18 Este 36 Este 0.2 -- -- 100
2020-03-17 01:00:00 3.4 23 Nordeste 32 Nordeste 0.4 -- -- 100
2020-03-17 00:00:00 2.9 17 Nordeste 29 Este 0.4 -- -- 100
2020-03-16 23:00:00 2.5 15 Este 31 Este 0.6 -- -- 100
2020-03-16 22:00:00 2.7 22 Este 36 Este 0.4 -- -- 100
2020-03-16 21:00:00 1.9 21 Este 35 Este 0.4 -- -- 100
2020-03-16 20:00:00 1.7 23 Nordeste 33 Nordeste 0.4 -- -- 100
2020-03-16 19:00:00 1.7 23 Nordeste 34 Nordeste 1.2 -- -- 100
2020-03-16 18:00:00 0.8 19 Nordeste 33 Nordeste 2.4 -- -- 100
2020-03-16 17:00:00 1.5 19 Nordeste 31 Nordeste 2 -- -- 100
2020-03-16 16:00:00 0.9 15 Nordeste 32 Este 1.6 -- -- 100
2020-03-16 15:00:00 1.2 26 Nordeste 48 Este 3.8 -- -- 100
2020-03-16 14:00:00 1.4 29 Nordeste 48 Nordeste 4 -- -- 100
2020-03-16 13:00:00 0.5 24 Nordeste 66 Nordeste 0.6 -- -- 100
2020-03-16 12:00:00 0.1 16 Nordeste 29 Nordeste 0 -- -- 100
2020-03-16 11:00:00 0.1 21 Nordeste 33 Nordeste 0 -- -- 100
2020-03-16 10:00:00 0 20 Nordeste 33 Nordeste 0 -- -- 100
2020-03-16 09:00:00 -0.2 19 Nordeste 33 Nordeste 0 -- -- 100
2020-03-16 08:00:00 -0.4 12 Nordeste 22 Norte 0 -- -- 100
2020-03-16 07:00:00 0.4 2 Este 15 Sudoeste 0 -- -- 100
2020-03-16 06:00:00 0.5 13 Sudoeste 23 Sudoeste 0.2 -- -- 100
2020-03-16 05:00:00 0.9 15 Sudoeste 29 Sudoeste 0 -- -- 99
2020-03-16 04:00:00 0.9 18 Sudoeste 30 Sudoeste 0 -- -- 99
2020-03-16 03:00:00 0.9 15 Sudoeste 33 Sudoeste 0 -- -- 98
2020-03-16 02:00:00 1.4 23 Sudoeste 31 Sudoeste 0 -- -- 95
2020-03-16 01:00:00 4.1 16 Oeste 27 Sudoeste 0.2 -- -- 89
2020-03-16 00:00:00 6.5 20 Sudoeste 31 Sudoeste 0.2 -- -- 85
2020-03-15 23:00:00 7.4 18 Sudoeste 34 Oeste 0 -- -- 77
2020-03-15 22:00:00 8.2 14 Sudoeste 22 Oeste 0 -- -- 80
2020-03-15 21:00:00 9 10 Sudoeste 22 Oeste 0 -- -- 81
2020-03-15 20:00:00 9.9 8 Oeste 24 Oeste 0 -- -- 78
2020-03-15 19:00:00 11.7 13 Oeste 32 Oeste 0 -- -- 72
2020-03-15 18:00:00 10.4 23 Sudoeste 52 Sudoeste 3.4 -- -- 75
2020-03-15 17:00:00 10.6 13 Sudoeste 33 Sudoeste 2.6 -- -- 77
2020-03-15 16:00:00 14.1 28 Sudoeste 44 Sur 0 -- -- 58
2020-03-15 15:00:00 17.1 26 Sudoeste 43 Sudoeste 0 -- -- 46
2020-03-15 14:00:00 16.9 23 Sudoeste 45 Oeste 0 -- -- 46
2020-03-15 13:00:00 15.6 21 Sudoeste 40 Sudoeste 0 -- -- 47
2020-03-15 12:00:00 15.5 27 Sudoeste 44 Oeste 0 -- -- 52
2020-03-15 11:00:00 14.9 29 Sudoeste 44 Sudoeste 0 -- -- 55
2020-03-15 10:00:00 14.1 21 Sudoeste 33 Sudoeste 0 -- -- 58
2020-03-15 09:00:00 12.4 15 Sur 23 Sur 0 -- -- 57
2020-03-15 08:00:00 10.9 15 Sur 21 Sudoeste 0 -- -- 54
2020-03-15 07:00:00 10 13 Sur 18 Sur 0 -- -- 52
2020-03-15 06:00:00 9.7 11 Sur 14 Sur 0 -- -- 46
2020-03-15 05:00:00 9.8 9 Sur 12 Sur 0 -- -- 44
2020-03-15 04:00:00 10.4 6 Sur 8 Sudeste 0 -- -- 42
2020-03-15 03:00:00 8.2 4 Este 8 Este 0 -- -- 48
2020-03-15 02:00:00 7.9 4 Este 5 Este 0 -- -- 49
2020-03-15 01:00:00 10.2 2 Sudoeste 10 Sudeste 0 -- -- 41
2020-03-15 00:00:00 10.2 6 Sudeste 9 Sudeste 0 -- -- 40
2020-03-14 23:00:00 10.3 4 Este 9 Este 0 -- -- 42
2020-03-14 22:00:00 8.2 9 Este 11 Este 0 -- -- 49
2020-03-14 21:00:00 7.8 10 Este 12 Este 0 -- -- 50
2020-03-14 20:00:00 10.3 3 Nordeste 7 Norte 0 -- -- 44
2020-03-14 19:00:00 13.2 5 Norte 9 Norte 0 -- -- 34
2020-03-14 18:00:00 14.4 5 Norte 17 Norte 0 -- -- 31
2020-03-14 17:00:00 14.5 7 Nordeste 15 Nordeste 0 -- -- 35
2020-03-14 16:00:00 14.6 7 Norte 17 Norte 0 -- -- 38
2020-03-14 15:00:00 13.8 9 Norte 17 Norte 0 -- -- 41
2020-03-14 14:00:00 13.6 11 Norte 17 Norte 0 -- -- 51
2020-03-14 13:00:00 12.3 7 Norte 15 Norte 0 -- -- 65
2020-03-14 12:00:00 11 6 Noroeste 12 Noroeste 0 -- -- 71
2020-03-14 11:00:00 10 3 Norte 8 Noroeste 0 -- -- 82
2020-03-14 10:00:00 8.6 2 Noroeste 5 Noroeste 0 -- -- 88
2020-03-14 09:00:00 6.7 0 Calma 3 Norte 0 -- -- 91
2020-03-14 08:00:00 5.5 2 Oeste 7 Sudeste 0 -- -- 92
2020-03-14 07:00:00 4.2 2 Noroeste 8 Noroeste 0 -- -- 91
2020-03-14 06:00:00 5.3 8 Sur 11 Sur 0 -- -- 92
2020-03-14 05:00:00 3.1 8 Sur 16 Oeste 0 -- -- 97
2020-03-14 04:00:00 3.1 6 Sur 12 Norte 0 -- -- 94
2020-03-14 03:00:00 5 13 Sudoeste 18 Sur 0 -- -- 96
2020-03-14 02:00:00 2.8 8 Oeste 15 Noroeste 0 -- -- 95
2020-03-14 01:00:00 7.4 10 Sur 13 Sur 0 -- -- 90
2020-03-14 00:00:00 4 5 Sudoeste 11 Noroeste 0 -- -- 95
2020-03-13 23:00:00 6.5 5 Noroeste 16 Noroeste 0 -- -- 85
2020-03-13 22:00:00 6 2 Sudeste 14 Noroeste 0 -- -- 90
2020-03-13 21:00:00 7.9 8 Sudeste 9 Sudeste 0 -- -- 85
2020-03-13 20:00:00 7.3 0 Calma 9 Noroeste 0 -- -- 86
2020-03-13 19:00:00 9 8 Noroeste 16 Norte 0 -- -- 81
2020-03-13 18:00:00 11.3 13 Norte 22 Noroeste 0 -- -- 75
2020-03-13 17:00:00 14.4 10 Norte 23 Noroeste 0 -- -- 67
2020-03-13 16:00:00 15 12 Norte 18 Nordeste 0 -- -- 66
2020-03-13 15:00:00 14.8 9 Norte 21 Norte 0 -- -- 66
2020-03-13 14:00:00 14.6 14 Nordeste 28 Norte 0 -- -- 68
2020-03-13 13:00:00 14.3 10 Nordeste 20 Nordeste 0 -- -- 70
2020-03-13 12:00:00 13.3 12 Nordeste 24 Nordeste 0 -- -- 72
2020-03-13 11:00:00 11.7 15 Nordeste 28 Nordeste 0 -- -- 76
2020-03-13 10:00:00 10.1 15 Nordeste 24 Nordeste 0 -- -- 87
2020-03-13 09:00:00 7 10 Nordeste 21 Nordeste 0 -- -- 100
2020-03-13 08:00:00 5.9 12 Nordeste 18 Nordeste 0 -- -- 100
2020-03-13 07:00:00 5.8 8 Nordeste 11 Nordeste 0 -- -- 99
2020-03-13 06:00:00 5.9 8 Nordeste 14 Nordeste 0 -- -- 97
2020-03-13 05:00:00 6.4 6 Este 9 Nordeste 0 -- -- 96
2020-03-13 04:00:00 7.4 4 Nordeste 13 Sudeste 0 -- -- 93
2020-03-13 03:00:00 7.6 3 Sudeste 15 Sudeste 0 -- -- 90
2020-03-13 02:00:00 7.1 8 Sudeste 13 Este 0 -- -- 94
2020-03-13 01:00:00 7 3 Sudoeste 8 Noroeste 0 -- -- 94
2020-03-13 00:00:00 7.7 5 Sudoeste 10 Oeste 0 -- -- 92
2020-03-12 23:00:00 8.9 6 Noroeste 17 Noroeste 0 -- -- 88
2020-03-12 22:00:00 10.5 6 Norte 12 Sudeste 0 -- -- 84
2020-03-12 21:00:00 11.2 7 Norte 17 Noroeste 0 -- -- 82
2020-03-12 20:00:00 13.5 6 Norte 13 Nordeste 0 -- -- 74
2020-03-12 19:00:00 15.6 7 Nordeste 24 Norte 0 -- -- 68
2020-03-12 18:00:00 18 8 Noroeste 23 Noroeste 0 -- -- 48
2020-03-12 17:00:00 19.8 17 Noroeste 25 Noroeste 0 -- -- 45
2020-03-12 16:00:00 21.7 11 Noroeste 23 Oeste 0 -- -- 39
2020-03-12 15:00:00 21.9 13 Oeste 29 Sudoeste 0 -- -- 39
2020-03-12 14:00:00 21.7 19 Sudoeste 37 Sudoeste 0 -- -- 38
2020-03-12 13:00:00 20.9 25 Sudoeste 38 Oeste 0 -- -- 39
2020-03-12 12:00:00 20.8 24 Sudoeste 34 Sudoeste 0 -- -- 37
2020-03-12 11:00:00 19.1 20 Sudoeste 30 Sudoeste 0 -- -- 39
2020-03-12 10:00:00 18.2 13 Sudoeste 19 Sur 0 -- -- 40
2020-03-12 09:00:00 16.6 11 Sudoeste 17 Sur 0 -- -- 42
2020-03-12 08:00:00 15.5 7 Sudoeste 15 Sudoeste 0 -- -- 43
2020-03-12 07:00:00 15.6 14 Sudoeste 19 Sudoeste 0 -- -- 42
2020-03-12 06:00:00 15.2 6 Sur 15 Sur 0 -- -- 41
2020-03-12 05:00:00 14.4 12 Sur 15 Sur 0 -- -- 48
2020-03-12 04:00:00 15.2 13 Sur 16 Sur 0 -- -- 51
2020-03-12 03:00:00 15.1 10 Sudoeste 15 Sur 0 -- -- 52
2020-03-12 02:00:00 15.5 13 Sur 15 Sudoeste 0 -- -- 51
2020-03-12 01:00:00 15.5 12 Sur 17 Sur 0 -- -- 52
2020-03-12 00:00:00 15.1 12 Sur 17 Sur 0 -- -- 54
2020-03-11 23:00:00 15.1 11 Sur 15 Sur 0 -- -- 54
2020-03-11 22:00:00 15.7 0 Calma -- -- 0 -- -- 49
2020-03-11 21:00:00 16.5 0 Calma -- -- 0 -- -- 47
2020-03-11 20:00:00 16.8 0 Calma -- -- 0 -- -- 50
2020-03-11 19:00:00 17.5 0 Calma 6 Oeste 0 -- -- 49
2020-03-11 18:00:00 18.7 5 Oeste 19 Oeste 0 -- -- 47
2020-03-11 17:00:00 20.4 12 Oeste 25 Sudoeste 0 -- -- 41
2020-03-11 16:00:00 20.3 16 Oeste 28 Oeste 0 -- -- 38
2020-03-11 15:00:00 20.2 21 Oeste 30 Oeste 0 -- -- 40
2020-03-11 14:00:00 19.8 19 Oeste 31 Oeste 0 -- -- 41
2020-03-11 13:00:00 19.2 15 Sudoeste 30 Sudoeste 0 -- -- 44
2020-03-11 12:00:00 18 16 Sudoeste 25 Sudoeste 0 -- -- 49
2020-03-11 11:00:00 16.8 16 Sudoeste 24 Sudoeste 0 -- -- 52
2020-03-11 10:00:00 14.7 8 Oeste 13 Sudoeste 0 -- -- 56
2020-03-11 09:00:00 12.2 4 Oeste 11 Sudoeste 0 -- -- 61
2020-03-11 08:00:00 10.4 10 Sudoeste 14 Sudoeste 0 -- -- 73
2020-03-11 07:00:00 10.4 9 Sudoeste 17 Sudoeste 0 -- -- 70
2020-03-11 06:00:00 10.6 11 Sudoeste 19 Sudoeste 0 -- -- 63
2020-03-11 05:00:00 10.7 13 Sudoeste 21 Sudoeste 0 -- -- 65
2020-03-11 04:00:00 11 14 Sudoeste 26 Sudoeste 0 -- -- 67
2020-03-11 03:00:00 11.3 17 Sudoeste 25 Sudoeste 0 -- -- 64
2020-03-11 02:00:00 11.7 21 Sudoeste 28 Sudoeste 0 -- -- 65
2020-03-11 01:00:00 11.9 18 Sudoeste 27 Sudoeste 0 -- -- 59
2020-03-11 00:00:00 12.2 17 Sudoeste 23 Sudoeste 0 -- -- 57